sensor_id;sensor_type;location;lat;lon;timestamp;temperature;humidity
46784;DHT22;32544;52.832;13.816;2022-11-15T00:00:31;23.40;54.30
46784;DHT22;32544;52.832;13.816;2022-11-15T00:01:50;23.40;54.30
46784;DHT22;32544;52.832;13.816;2022-11-15T00:03:09;23.40;54.30
46784;DHT22;32544;52.832;13.816;2022-11-15T00:04:28;23.40;54.30
46784;DHT22;32544;52.832;13.816;2022-11-15T00:05:48;23.40;54.30
46784;DHT22;32544;52.832;13.816;2022-11-15T00:07:08;23.40;54.30
46784;DHT22;32544;52.832;13.816;2022-11-15T00:08:29;23.40;54.30
46784;DHT22;32544;52.832;13.816;2022-11-15T00:09:47;23.40;54.30
46784;DHT22;32544;52.832;13.816;2022-11-15T00:11:08;23.40;54.30
46784;DHT22;32544;52.832;13.816;2022-11-15T00:12:28;23.40;54.30
46784;DHT22;32544;52.832;13.816;2022-11-15T00:13:48;23.40;54.40
46784;DHT22;32544;52.832;13.816;2022-11-15T00:15:07;23.40;54.40
46784;DHT22;32544;52.832;13.816;2022-11-15T00:16:26;23.40;54.40
46784;DHT22;32544;52.832;13.816;2022-11-15T00:17:48;23.40;54.40
46784;DHT22;32544;52.832;13.816;2022-11-15T00:19:07;23.40;54.40
46784;DHT22;32544;52.832;13.816;2022-11-15T00:20:26;23.40;54.50
46784;DHT22;32544;52.832;13.816;2022-11-15T00:21:45;23.40;54.40
46784;DHT22;32544;52.832;13.816;2022-11-15T00:23:04;23.40;55.10
46784;DHT22;32544;52.832;13.816;2022-11-15T00:24:24;23.40;55.10
46784;DHT22;32544;52.832;13.816;2022-11-15T00:25:43;23.40;54.50
46784;DHT22;32544;52.832;13.816;2022-11-15T00:27:02;23.40;54.40
46784;DHT22;32544;52.832;13.816;2022-11-15T00:28:21;23.30;54.30
46784;DHT22;32544;52.832;13.816;2022-11-15T00:29:41;23.40;54.40
46784;DHT22;32544;52.832;13.816;2022-11-15T00:31:02;23.40;54.40
46784;DHT22;32544;52.832;13.816;2022-11-15T00:32:22;23.40;54.30
46784;DHT22;32544;52.832;13.816;2022-11-15T00:33:42;23.40;54.30
46784;DHT22;32544;52.832;13.816;2022-11-15T00:35:01;23.40;54.40
46784;DHT22;32544;52.832;13.816;2022-11-15T00:36:21;23.40;54.30
46784;DHT22;32544;52.832;13.816;2022-11-15T00:37:40;23.30;54.90
46784;DHT22;32544;52.832;13.816;2022-11-15T00:38:59;23.30;54.30
46784;DHT22;32544;52.832;13.816;2022-11-15T00:40:18;23.30;54.30
46784;DHT22;32544;52.832;13.816;2022-11-15T00:41:38;23.30;54.30
46784;DHT22;32544;52.832;13.816;2022-11-15T00:42:57;23.40;54.40
46784;DHT22;32544;52.832;13.816;2022-11-15T00:44:16;23.30;54.40
46784;DHT22;32544;52.832;13.816;2022-11-15T00:45:35;23.30;54.30
46784;DHT22;32544;52.832;13.816;2022-11-15T00:46:55;23.30;54.30
46784;DHT22;32544;52.832;13.816;2022-11-15T00:48:14;23.30;54.20
46784;DHT22;32544;52.832;13.816;2022-11-15T00:49:33;23.30;54.20
46784;DHT22;32544;52.832;13.816;2022-11-15T00:50:52;23.30;54.20
46784;DHT22;32544;52.832;13.816;2022-11-15T00:52:11;23.30;54.20
46784;DHT22;32544;52.832;13.816;2022-11-15T00:53:31;23.30;54.30
46784;DHT22;32544;52.832;13.816;2022-11-15T00:54:50;23.30;54.30
46784;DHT22;32544;52.832;13.816;2022-11-15T00:56:09;23.30;54.90
46784;DHT22;32544;52.832;13.816;2022-11-15T00:57:28;23.30;54.20
46784;DHT22;32544;52.832;13.816;2022-11-15T00:58:47;23.30;54.20
46784;DHT22;32544;52.832;13.816;2022-11-15T01:00:06;23.30;54.20
46784;DHT22;32544;52.832;13.816;2022-11-15T01:01:26;23.30;54.20
46784;DHT22;32544;52.832;13.816;2022-11-15T01:02:45;23.30;54.20
46784;DHT22;32544;52.832;13.816;2022-11-15T01:04:04;23.30;54.20
46784;DHT22;32544;52.832;13.816;2022-11-15T01:05:23;23.30;54.20
46784;DHT22;32544;52.832;13.816;2022-11-15T01:06:43;23.30;54.10
46784;DHT22;32544;52.832;13.816;2022-11-15T01:08:02;23.30;54.30
46784;DHT22;32544;52.832;13.816;2022-11-15T01:09:21;23.30;54.20
46784;DHT22;32544;52.832;13.816;2022-11-15T01:10:40;23.30;54.10
46784;DHT22;32544;52.832;13.816;2022-11-15T01:11:59;23.30;54.20
46784;DHT22;32544;52.832;13.816;2022-11-15T01:13:18;23.30;54.10
46784;DHT22;32544;52.832;13.816;2022-11-15T01:14:37;23.30;54.20
46784;DHT22;32544;52.832;13.816;2022-11-15T01:15:57;23.30;54.80
46784;DHT22;32544;52.832;13.816;2022-11-15T01:17:16;23.30;54.10
46784;DHT22;32544;52.832;13.816;2022-11-15T01:18:35;23.30;54.20
46784;DHT22;32544;52.832;13.816;2022-11-15T01:19:55;23.30;54.10
46784;DHT22;32544;52.832;13.816;2022-11-15T01:21:16;23.30;54.10
46784;DHT22;32544;52.832;13.816;2022-11-15T01:22:36;23.30;54.20
46784;DHT22;32544;52.832;13.816;2022-11-15T01:23:55;23.30;54.10
46784;DHT22;32544;52.832;13.816;2022-11-15T01:25:15;23.30;54.20
46784;DHT22;32544;52.832;13.816;2022-11-15T01:26:34;23.30;54.10
46784;DHT22;32544;52.832;13.816;2022-11-15T01:27:53;23.30;54.10
46784;DHT22;32544;52.832;13.816;2022-11-15T01:29:13;23.30;54.10
46784;DHT22;32544;52.832;13.816;2022-11-15T01:30:32;23.30;54.80
46784;DHT22;32544;52.832;13.816;2022-11-15T01:31:52;23.20;54.10
46784;DHT22;32544;52.832;13.816;2022-11-15T01:33:12;23.30;54.10
46784;DHT22;32544;52.832;13.816;2022-11-15T01:34:31;23.30;54.10
46784;DHT22;32544;52.832;13.816;2022-11-15T01:35:50;23.30;54.20
46784;DHT22;32544;52.832;13.816;2022-11-15T01:37:09;23.30;54.10
46784;DHT22;32544;52.832;13.816;2022-11-15T01:38:29;23.30;54.10
46784;DHT22;32544;52.832;13.816;2022-11-15T01:39:48;23.20;54.00
46784;DHT22;32544;52.832;13.816;2022-11-15T01:41:14;23.20;54.00
46784;DHT22;32544;52.832;13.816;2022-11-15T01:42:33;23.30;54.10
46784;DHT22;32544;52.832;13.816;2022-11-15T01:43:53;23.20;54.10
46784;DHT22;32544;52.832;13.816;2022-11-15T01:45:14;23.20;54.00
46784;DHT22;32544;52.832;13.816;2022-11-15T01:46:34;23.20;54.10
46784;DHT22;32544;52.832;13.816;2022-11-15T01:47:54;23.20;54.00
46784;DHT22;32544;52.832;13.816;2022-11-15T01:49:15;23.30;54.10
46784;DHT22;32544;52.832;13.816;2022-11-15T01:50:35;23.20;54.00
46784;DHT22;32544;52.832;13.816;2022-11-15T01:51:54;23.30;54.10
46784;DHT22;32544;52.832;13.816;2022-11-15T01:53:14;23.30;54.00
46784;DHT22;32544;52.832;13.816;2022-11-15T01:54:33;23.20;54.00
46784;DHT22;32544;52.832;13.816;2022-11-15T01:55:52;23.20;54.00
46784;DHT22;32544;52.832;13.816;2022-11-15T01:57:12;23.20;54.00
46784;DHT22;32544;52.832;13.816;2022-11-15T01:58:32;23.30;54.00
46784;DHT22;32544;52.832;13.816;2022-11-15T01:59:51;23.20;54.00
46784;DHT22;32544;52.832;13.816;2022-11-15T02:01:11;23.30;54.10
46784;DHT22;32544;52.832;13.816;2022-11-15T02:02:31;23.30;54.10
46784;DHT22;32544;52.832;13.816;2022-11-15T02:03:56;23.20;54.00
46784;DHT22;32544;52.832;13.816;2022-11-15T02:05:16;23.20;54.60
46784;DHT22;32544;52.832;13.816;2022-11-15T02:06:35;23.20;54.00
46784;DHT22;32544;52.832;13.816;2022-11-15T02:07:55;23.20;54.10
46784;DHT22;32544;52.832;13.816;2022-11-15T02:09:14;23.30;54.10
46784;DHT22;32544;52.832;13.816;2022-11-15T02:10:33;23.20;54.00
46784;DHT22;32544;52.832;13.816;2022-11-15T02:11:52;23.20;54.00
46784;DHT22;32544;52.832;13.816;2022-11-15T02:13:15;23.30;54.00
46784;DHT22;32544;52.832;13.816;2022-11-15T02:14:35;23.30;54.10
46784;DHT22;32544;52.832;13.816;2022-11-15T02:16:00;23.30;54.00
46784;DHT22;32544;52.832;13.816;2022-11-15T02:18:41;23.30;54.00
46784;DHT22;32544;52.832;13.816;2022-11-15T02:20:25;23.30;54.10
46784;DHT22;32544;52.832;13.816;2022-11-15T02:32:23;23.20;54.00
46784;DHT22;32544;52.832;13.816;2022-11-15T02:38:12;23.30;54.10
46784;DHT22;32544;52.832;13.816;2022-11-15T02:39:54;23.20;54.10
46784;DHT22;32544;52.832;13.816;2022-11-15T02:41:17;23.20;54.00
46784;DHT22;32544;52.832;13.816;2022-11-15T02:42:48;23.20;54.00
46784;DHT22;32544;52.832;13.816;2022-11-15T02:44:30;23.30;54.00
46784;DHT22;32544;52.832;13.816;2022-11-15T02:45:53;23.30;54.70
46784;DHT22;32544;52.832;13.816;2022-11-15T02:47:13;23.30;54.00
46784;DHT22;32544;52.832;13.816;2022-11-15T02:48:35;23.30;54.10
46784;DHT22;32544;52.832;13.816;2022-11-15T02:49:57;23.30;54.00
46784;DHT22;32544;52.832;13.816;2022-11-15T02:51:17;23.30;54.00
46784;DHT22;32544;52.832;13.816;2022-11-15T02:52:37;23.30;54.00
46784;DHT22;32544;52.832;13.816;2022-11-15T02:53:56;23.30;54.00
46784;DHT22;32544;52.832;13.816;2022-11-15T02:55:29;23.30;54.00
46784;DHT22;32544;52.832;13.816;2022-11-15T02:56:48;23.30;54.00
46784;DHT22;32544;52.832;13.816;2022-11-15T02:58:19;23.30;53.90
46784;DHT22;32544;52.832;13.816;2022-11-15T03:04:10;23.30;54.00
46784;DHT22;32544;52.832;13.816;2022-11-15T03:06:55;23.30;54.50
46784;DHT22;32544;52.832;13.816;2022-11-15T03:09:37;23.30;53.90
46784;DHT22;32544;52.832;13.816;2022-11-15T03:12:25;23.30;53.90
46784;DHT22;32544;52.832;13.816;2022-11-15T03:15:27;23.30;53.90
46784;DHT22;32544;52.832;13.816;2022-11-15T03:18:36;23.30;53.80
46784;DHT22;32544;52.832;13.816;2022-11-15T03:19:58;23.30;53.80
46784;DHT22;32544;52.832;13.816;2022-11-15T03:21:18;23.30;53.80
46784;DHT22;32544;52.832;13.816;2022-11-15T03:22:39;23.20;53.60
46784;DHT22;32544;52.832;13.816;2022-11-15T03:24:00;23.30;53.70
46784;DHT22;32544;52.832;13.816;2022-11-15T03:25:20;23.30;53.60
46784;DHT22;32544;52.832;13.816;2022-11-15T03:26:41;23.20;53.50
46784;DHT22;32544;52.832;13.816;2022-11-15T03:28:02;23.20;53.50
46784;DHT22;32544;52.832;13.816;2022-11-15T03:29:24;23.20;53.40
46784;DHT22;32544;52.832;13.816;2022-11-15T03:30:44;23.20;53.40
46784;DHT22;32544;52.832;13.816;2022-11-15T03:32:12;23.20;53.50
46784;DHT22;32544;52.832;13.816;2022-11-15T03:33:32;23.30;53.50
46784;DHT22;32544;52.832;13.816;2022-11-15T03:34:53;23.20;53.40
46784;DHT22;32544;52.832;13.816;2022-11-15T03:36:14;23.30;53.50
46784;DHT22;32544;52.832;13.816;2022-11-15T03:37:39;23.30;53.50
46784;DHT22;32544;52.832;13.816;2022-11-15T03:39:00;23.30;53.50
46784;DHT22;32544;52.832;13.816;2022-11-15T03:40:22;23.30;53.60
46784;DHT22;32544;52.832;13.816;2022-11-15T03:44:42;23.30;53.60
46784;DHT22;32544;52.832;13.816;2022-11-15T03:46:04;23.30;53.70
46784;DHT22;32544;52.832;13.816;2022-11-15T03:47:30;23.30;53.50
46784;DHT22;32544;52.832;13.816;2022-11-15T03:48:51;23.30;53.50
46784;DHT22;32544;52.832;13.816;2022-11-15T03:50:13;23.30;53.60
46784;DHT22;32544;52.832;13.816;2022-11-15T03:51:33;23.30;53.60
46784;DHT22;32544;52.832;13.816;2022-11-15T03:52:52;23.30;53.60
46784;DHT22;32544;52.832;13.816;2022-11-15T03:54:13;23.30;53.60
46784;DHT22;32544;52.832;13.816;2022-11-15T03:55:32;23.30;53.60
46784;DHT22;32544;52.832;13.816;2022-11-15T03:56:51;23.30;54.20
46784;DHT22;32544;52.832;13.816;2022-11-15T03:58:11;23.30;54.30
46784;DHT22;32544;52.832;13.816;2022-11-15T03:59:30;23.30;53.60
46784;DHT22;32544;52.832;13.816;2022-11-15T04:00:49;23.30;53.70
46784;DHT22;32544;52.832;13.816;2022-11-15T04:02:08;23.30;53.70
46784;DHT22;32544;52.832;13.816;2022-11-15T04:03:28;23.30;53.70
46784;DHT22;32544;52.832;13.816;2022-11-15T04:04:47;23.30;53.90
46784;DHT22;32544;52.832;13.816;2022-11-15T04:06:06;23.30;53.90
46784;DHT22;32544;52.832;13.816;2022-11-15T04:07:25;23.30;53.90
46784;DHT22;32544;52.832;13.816;2022-11-15T04:08:45;23.30;53.80
46784;DHT22;32544;52.832;13.816;2022-11-15T04:10:04;23.30;53.90
46784;DHT22;32544;52.832;13.816;2022-11-15T04:11:26;23.30;53.90
46784;DHT22;32544;52.832;13.816;2022-11-15T04:12:46;23.30;54.50
46784;DHT22;32544;52.832;13.816;2022-11-15T04:14:06;23.30;53.90
46784;DHT22;32544;52.832;13.816;2022-11-15T04:15:26;23.30;53.90
46784;DHT22;32544;52.832;13.816;2022-11-15T04:16:45;23.30;53.90
46784;DHT22;32544;52.832;13.816;2022-11-15T04:18:04;23.30;53.90
46784;DHT22;32544;52.832;13.816;2022-11-15T04:19:23;23.30;53.90
46784;DHT22;32544;52.832;13.816;2022-11-15T04:21:01;23.30;53.90
46784;DHT22;32544;52.832;13.816;2022-11-15T04:22:40;23.30;53.90
46784;DHT22;32544;52.832;13.816;2022-11-15T04:24:18;23.30;53.90
46784;DHT22;32544;52.832;13.816;2022-11-15T04:25:37;23.30;53.90
46784;DHT22;32544;52.832;13.816;2022-11-15T04:26:56;23.30;53.90
46784;DHT22;32544;52.832;13.816;2022-11-15T04:28:16;23.30;54.00
46784;DHT22;32544;52.832;13.816;2022-11-15T04:29:35;23.30;53.90
46784;DHT22;32544;52.832;13.816;2022-11-15T04:30:55;23.30;53.90
46784;DHT22;32544;52.832;13.816;2022-11-15T04:32:14;23.30;53.90
46784;DHT22;32544;52.832;13.816;2022-11-15T04:33:33;23.30;53.90
46784;DHT22;32544;52.832;13.816;2022-11-15T04:34:52;23.30;53.90
46784;DHT22;32544;52.832;13.816;2022-11-15T04:36:11;23.30;54.50
46784;DHT22;32544;52.832;13.816;2022-11-15T04:37:49;23.30;53.80
46784;DHT22;32544;52.832;13.816;2022-11-15T04:39:09;23.30;53.90
46784;DHT22;32544;52.832;13.816;2022-11-15T04:40:28;23.30;53.90
46784;DHT22;32544;52.832;13.816;2022-11-15T04:41:47;23.30;53.90
46784;DHT22;32544;52.832;13.816;2022-11-15T04:43:06;23.30;53.80
46784;DHT22;32544;52.832;13.816;2022-11-15T04:44:26;23.30;53.80
46784;DHT22;32544;52.832;13.816;2022-11-15T04:45:45;23.30;53.90
46784;DHT22;32544;52.832;13.816;2022-11-15T04:47:04;23.30;53.80
46784;DHT22;32544;52.832;13.816;2022-11-15T04:48:23;23.30;53.80
46784;DHT22;32544;52.832;13.816;2022-11-15T04:49:42;23.30;53.80
46784;DHT22;32544;52.832;13.816;2022-11-15T04:51:02;23.30;53.90
46784;DHT22;32544;52.832;13.816;2022-11-15T04:52:22;23.30;53.80
46784;DHT22;32544;52.832;13.816;2022-11-15T04:53:41;23.30;53.80
46784;DHT22;32544;52.832;13.816;2022-11-15T04:55:00;23.30;53.80
46784;DHT22;32544;52.832;13.816;2022-11-15T04:56:19;23.30;54.30
46784;DHT22;32544;52.832;13.816;2022-11-15T04:57:39;23.30;53.80
46784;DHT22;32544;52.832;13.816;2022-11-15T04:58:58;23.30;53.80
46784;DHT22;32544;52.832;13.816;2022-11-15T05:00:17;23.30;53.90
46784;DHT22;32544;52.832;13.816;2022-11-15T05:01:36;23.20;53.80
46784;DHT22;32544;52.832;13.816;2022-11-15T05:02:56;23.20;53.80
46784;DHT22;32544;52.832;13.816;2022-11-15T05:04:34;23.30;53.90
46784;DHT22;32544;52.832;13.816;2022-11-15T05:05:54;23.20;53.80
46784;DHT22;32544;52.832;13.816;2022-11-15T05:07:13;23.20;53.80
46784;DHT22;32544;52.832;13.816;2022-11-15T05:08:32;23.30;53.80
46784;DHT22;32544;52.832;13.816;2022-11-15T05:09:51;23.20;53.80
46784;DHT22;32544;52.832;13.816;2022-11-15T05:11:10;23.20;53.80
46784;DHT22;32544;52.832;13.816;2022-11-15T05:12:30;23.30;53.80
46784;DHT22;32544;52.832;13.816;2022-11-15T05:13:49;23.20;53.80
46784;DHT22;32544;52.832;13.816;2022-11-15T05:15:08;23.30;53.80
46784;DHT22;32544;52.832;13.816;2022-11-15T05:16:27;23.20;53.80
46784;DHT22;32544;52.832;13.816;2022-11-15T05:17:47;23.20;53.90
46784;DHT22;32544;52.832;13.816;2022-11-15T05:19:06;23.20;53.80
46784;DHT22;32544;52.832;13.816;2022-11-15T05:20:26;23.20;53.90
46784;DHT22;32544;52.832;13.816;2022-11-15T05:21:45;23.20;53.90
46784;DHT22;32544;52.832;13.816;2022-11-15T05:23:04;23.20;54.40
46784;DHT22;32544;52.832;13.816;2022-11-15T05:24:23;23.20;53.80
46784;DHT22;32544;52.832;13.816;2022-11-15T05:25:42;23.20;53.80
46784;DHT22;32544;52.832;13.816;2022-11-15T05:27:02;23.20;53.70
46784;DHT22;32544;52.832;13.816;2022-11-15T05:28:21;23.20;53.80
46784;DHT22;32544;52.832;13.816;2022-11-15T05:29:40;23.20;53.70
46784;DHT22;32544;52.832;13.816;2022-11-15T05:31:10;23.20;53.70
46784;DHT22;32544;52.832;13.816;2022-11-15T05:32:29;23.20;53.70
46784;DHT22;32544;52.832;13.816;2022-11-15T05:33:49;23.20;53.60
46784;DHT22;32544;52.832;13.816;2022-11-15T05:35:08;23.20;53.70
46784;DHT22;32544;52.832;13.816;2022-11-15T05:36:35;23.20;53.70
46784;DHT22;32544;52.832;13.816;2022-11-15T05:37:56;23.20;53.70
46784;DHT22;32544;52.832;13.816;2022-11-15T05:39:15;23.20;53.70
46784;DHT22;32544;52.832;13.816;2022-11-15T05:40:34;23.20;53.70
46784;DHT22;32544;52.832;13.816;2022-11-15T05:41:54;23.20;53.70
46784;DHT22;32544;52.832;13.816;2022-11-15T05:43:15;23.20;53.70
46784;DHT22;32544;52.832;13.816;2022-11-15T05:44:35;23.20;53.70
46784;DHT22;32544;52.832;13.816;2022-11-15T05:45:54;23.20;53.70
46784;DHT22;32544;52.832;13.816;2022-11-15T05:47:15;23.20;53.70
46784;DHT22;32544;52.832;13.816;2022-11-15T05:48:36;23.20;53.80
46784;DHT22;32544;52.832;13.816;2022-11-15T05:49:56;23.20;54.30
46784;DHT22;32544;52.832;13.816;2022-11-15T05:51:16;23.20;53.70
46784;DHT22;32544;52.832;13.816;2022-11-15T05:52:36;23.20;53.70
46784;DHT22;32544;52.832;13.816;2022-11-15T05:53:56;23.20;54.30
46784;DHT22;32544;52.832;13.816;2022-11-15T05:55:17;23.20;53.70
46784;DHT22;32544;52.832;13.816;2022-11-15T05:56:37;23.20;53.80
46784;DHT22;32544;52.832;13.816;2022-11-15T05:57:56;23.20;53.80
46784;DHT22;32544;52.832;13.816;2022-11-15T05:59:15;23.20;53.70
46784;DHT22;32544;52.832;13.816;2022-11-15T06:00:34;23.20;54.40
46784;DHT22;32544;52.832;13.816;2022-11-15T06:01:53;23.20;53.80
46784;DHT22;32544;52.832;13.816;2022-11-15T06:03:13;23.20;53.90
46784;DHT22;32544;52.832;13.816;2022-11-15T06:04:32;23.20;53.80
46784;DHT22;32544;52.832;13.816;2022-11-15T06:05:51;23.20;53.80
46784;DHT22;32544;52.832;13.816;2022-11-15T06:07:11;23.20;53.80
46784;DHT22;32544;52.832;13.816;2022-11-15T06:08:30;23.20;53.70
46784;DHT22;32544;52.832;13.816;2022-11-15T06:09:49;23.20;53.80
46784;DHT22;32544;52.832;13.816;2022-11-15T06:11:09;23.20;53.80
46784;DHT22;32544;52.832;13.816;2022-11-15T06:12:28;23.20;53.80
46784;DHT22;32544;52.832;13.816;2022-11-15T06:13:47;23.20;53.80
46784;DHT22;32544;52.832;13.816;2022-11-15T06:15:06;23.20;53.90
46784;DHT22;32544;52.832;13.816;2022-11-15T06:16:25;23.20;53.80
46784;DHT22;32544;52.832;13.816;2022-11-15T06:17:45;23.20;53.80
46784;DHT22;32544;52.832;13.816;2022-11-15T06:19:05;23.20;53.80
46784;DHT22;32544;52.832;13.816;2022-11-15T06:20:25;23.20;53.80
46784;DHT22;32544;52.832;13.816;2022-11-15T06:21:44;23.20;53.80
46784;DHT22;32544;52.832;13.816;2022-11-15T06:23:04;23.20;53.90
46784;DHT22;32544;52.832;13.816;2022-11-15T06:24:23;23.20;53.90
46784;DHT22;32544;52.832;13.816;2022-11-15T06:25:43;23.20;53.90
46784;DHT22;32544;52.832;13.816;2022-11-15T06:27:02;23.20;53.80
46784;DHT22;32544;52.832;13.816;2022-11-15T06:28:21;23.20;53.80
46784;DHT22;32544;52.832;13.816;2022-11-15T06:29:40;23.20;53.90
46784;DHT22;32544;52.832;13.816;2022-11-15T06:31:03;23.20;53.80
46784;DHT22;32544;52.832;13.816;2022-11-15T06:32:23;23.20;53.90
46784;DHT22;32544;52.832;13.816;2022-11-15T06:33:42;23.20;53.80
46784;DHT22;32544;52.832;13.816;2022-11-15T06:35:02;23.20;53.90
46784;DHT22;32544;52.832;13.816;2022-11-15T06:36:21;23.10;53.80
46784;DHT22;32544;52.832;13.816;2022-11-15T06:37:40;23.20;53.80
46784;DHT22;32544;52.832;13.816;2022-11-15T06:39:00;23.20;53.90
46784;DHT22;32544;52.832;13.816;2022-11-15T06:40:19;23.20;53.90
46784;DHT22;32544;52.832;13.816;2022-11-15T06:41:38;23.20;53.90
46784;DHT22;32544;52.832;13.816;2022-11-15T06:42:58;23.20;53.80
46784;DHT22;32544;52.832;13.816;2022-11-15T06:44:18;23.20;53.90
46784;DHT22;32544;52.832;13.816;2022-11-15T06:45:37;23.20;53.90
46784;DHT22;32544;52.832;13.816;2022-11-15T06:46:56;23.20;53.90
46784;DHT22;32544;52.832;13.816;2022-11-15T06:48:15;23.20;53.80
46784;DHT22;32544;52.832;13.816;2022-11-15T06:49:35;23.20;53.90
46784;DHT22;32544;52.832;13.816;2022-11-15T06:50:55;23.20;53.90
46784;DHT22;32544;52.832;13.816;2022-11-15T06:52:14;23.20;53.90
46784;DHT22;32544;52.832;13.816;2022-11-15T06:53:34;23.20;53.90
46784;DHT22;32544;52.832;13.816;2022-11-15T06:54:53;23.20;53.80
46784;DHT22;32544;52.832;13.816;2022-11-15T06:56:12;23.20;53.80
46784;DHT22;32544;52.832;13.816;2022-11-15T06:57:32;23.20;53.90
46784;DHT22;32544;52.832;13.816;2022-11-15T06:58:51;23.30;53.90
46784;DHT22;32544;52.832;13.816;2022-11-15T07:00:10;23.30;53.80
46784;DHT22;32544;52.832;13.816;2022-11-15T07:01:29;23.20;54.50
46784;DHT22;32544;52.832;13.816;2022-11-15T07:02:48;23.20;54.40
46784;DHT22;32544;52.832;13.816;2022-11-15T07:04:07;23.20;53.90
46784;DHT22;32544;52.832;13.816;2022-11-15T07:05:27;23.20;53.90
46784;DHT22;32544;52.832;13.816;2022-11-15T07:06:46;23.20;53.90
46784;DHT22;32544;52.832;13.816;2022-11-15T07:08:06;23.20;53.90
46784;DHT22;32544;52.832;13.816;2022-11-15T07:09:25;23.20;53.90
46784;DHT22;32544;52.832;13.816;2022-11-15T07:10:44;23.20;53.90
46784;DHT22;32544;52.832;13.816;2022-11-15T07:12:04;23.20;53.90
46784;DHT22;32544;52.832;13.816;2022-11-15T07:13:26;23.20;53.90
46784;DHT22;32544;52.832;13.816;2022-11-15T07:14:45;23.20;53.90
46784;DHT22;32544;52.832;13.816;2022-11-15T07:16:05;23.30;54.50
46784;DHT22;32544;52.832;13.816;2022-11-15T07:17:25;23.30;54.00
46784;DHT22;32544;52.832;13.816;2022-11-15T07:18:44;23.20;53.90
46784;DHT22;32544;52.832;13.816;2022-11-15T07:20:04;23.30;53.90
46784;DHT22;32544;52.832;13.816;2022-11-15T07:21:23;23.20;53.90
46784;DHT22;32544;52.832;13.816;2022-11-15T07:22:42;23.20;53.90
46784;DHT22;32544;52.832;13.816;2022-11-15T07:24:01;23.20;53.90
46784;DHT22;32544;52.832;13.816;2022-11-15T07:25:21;23.20;53.90
46784;DHT22;32544;52.832;13.816;2022-11-15T07:26:40;23.20;53.90
46784;DHT22;32544;52.832;13.816;2022-11-15T07:27:59;23.20;53.90
46784;DHT22;32544;52.832;13.816;2022-11-15T07:29:19;23.20;54.00
46784;DHT22;32544;52.832;13.816;2022-11-15T07:30:38;23.20;53.90
46784;DHT22;32544;52.832;13.816;2022-11-15T07:31:57;23.20;53.90
46784;DHT22;32544;52.832;13.816;2022-11-15T07:33:16;23.20;54.60
46784;DHT22;32544;52.832;13.816;2022-11-15T07:34:35;23.20;54.00
46784;DHT22;32544;52.832;13.816;2022-11-15T07:35:58;23.20;54.00
46784;DHT22;32544;52.832;13.816;2022-11-15T07:37:17;23.20;53.90
46784;DHT22;32544;52.832;13.816;2022-11-15T07:38:36;23.20;53.90
46784;DHT22;32544;52.832;13.816;2022-11-15T07:39:55;23.20;53.90
46784;DHT22;32544;52.832;13.816;2022-11-15T07:41:14;23.20;54.00
46784;DHT22;32544;52.832;13.816;2022-11-15T07:42:33;23.20;53.90
46784;DHT22;32544;52.832;13.816;2022-11-15T07:44:12;23.20;53.90
46784;DHT22;32544;52.832;13.816;2022-11-15T07:45:31;23.20;54.00
46784;DHT22;32544;52.832;13.816;2022-11-15T07:46:52;23.20;54.00
46784;DHT22;32544;52.832;13.816;2022-11-15T07:48:11;23.20;54.00
46784;DHT22;32544;52.832;13.816;2022-11-15T07:49:31;23.20;54.00
46784;DHT22;32544;52.832;13.816;2022-11-15T07:50:50;23.20;54.00
46784;DHT22;32544;52.832;13.816;2022-11-15T07:52:09;23.20;54.00
46784;DHT22;32544;52.832;13.816;2022-11-15T07:53:28;23.20;54.00
46784;DHT22;32544;52.832;13.816;2022-11-15T07:54:47;23.20;54.00
46784;DHT22;32544;52.832;13.816;2022-11-15T07:56:07;23.20;54.00
46784;DHT22;32544;52.832;13.816;2022-11-15T07:57:26;23.20;53.90
46784;DHT22;32544;52.832;13.816;2022-11-15T07:58:45;23.20;54.00
46784;DHT22;32544;52.832;13.816;2022-11-15T08:00:05;23.20;54.00
46784;DHT22;32544;52.832;13.816;2022-11-15T08:01:25;23.20;53.90
46784;DHT22;32544;52.832;13.816;2022-11-15T08:02:44;23.20;53.90
46784;DHT22;32544;52.832;13.816;2022-11-15T08:04:03;23.20;53.90
46784;DHT22;32544;52.832;13.816;2022-11-15T08:05:22;23.20;53.90
46784;DHT22;32544;52.832;13.816;2022-11-15T08:06:42;23.20;53.90
46784;DHT22;32544;52.832;13.816;2022-11-15T08:08:01;23.10;53.90
46784;DHT22;32544;52.832;13.816;2022-11-15T08:09:20;23.10;53.90
46784;DHT22;32544;52.832;13.816;2022-11-15T08:10:40;23.10;53.90
46784;DHT22;32544;52.832;13.816;2022-11-15T08:11:59;23.20;53.90
46784;DHT22;32544;52.832;13.816;2022-11-15T08:13:18;23.10;53.90
46784;DHT22;32544;52.832;13.816;2022-11-15T08:14:37;23.10;53.90
46784;DHT22;32544;52.832;13.816;2022-11-15T08:15:57;23.10;53.90
46784;DHT22;32544;52.832;13.816;2022-11-15T08:17:17;23.20;53.90
46784;DHT22;32544;52.832;13.816;2022-11-15T08:18:36;23.20;53.90
46784;DHT22;32544;52.832;13.816;2022-11-15T08:19:56;23.10;53.90
46784;DHT22;32544;52.832;13.816;2022-11-15T08:21:17;23.10;53.80
46784;DHT22;32544;52.832;13.816;2022-11-15T08:22:36;23.10;53.90
46784;DHT22;32544;52.832;13.816;2022-11-15T08:23:55;23.10;53.90
46784;DHT22;32544;52.832;13.816;2022-11-15T08:25:15;23.10;53.90
46784;DHT22;32544;52.832;13.816;2022-11-15T08:26:34;23.10;53.90
46784;DHT22;32544;52.832;13.816;2022-11-15T08:27:54;23.20;53.90
46784;DHT22;32544;52.832;13.816;2022-11-15T08:29:14;23.10;53.90
46784;DHT22;32544;52.832;13.816;2022-11-15T08:30:36;23.20;53.90
46784;DHT22;32544;52.832;13.816;2022-11-15T08:31:56;23.10;53.80
46784;DHT22;32544;52.832;13.816;2022-11-15T08:33:15;23.20;53.90
46784;DHT22;32544;52.832;13.816;2022-11-15T08:34:35;23.10;53.80
46784;DHT22;32544;52.832;13.816;2022-11-15T08:35:58;23.20;53.90
46784;DHT22;32544;52.832;13.816;2022-11-15T08:37:17;23.10;53.90
46784;DHT22;32544;52.832;13.816;2022-11-15T08:38:36;23.20;53.90
46784;DHT22;32544;52.832;13.816;2022-11-15T08:39:55;23.10;53.90
46784;DHT22;32544;52.832;13.816;2022-11-15T08:41:17;23.10;54.50
46784;DHT22;32544;52.832;13.816;2022-11-15T08:42:38;23.20;53.90
46784;DHT22;32544;52.832;13.816;2022-11-15T08:43:57;23.20;53.90
46784;DHT22;32544;52.832;13.816;2022-11-15T08:45:17;23.10;53.90
46784;DHT22;32544;52.832;13.816;2022-11-15T08:46:36;23.10;53.90
46784;DHT22;32544;52.832;13.816;2022-11-15T08:47:55;23.10;53.90
46784;DHT22;32544;52.832;13.816;2022-11-15T08:49:14;23.10;54.00
46784;DHT22;32544;52.832;13.816;2022-11-15T08:50:34;23.10;54.00